Time;durP1;ratioP1;P1;durP2;ratioP2;P2;SDS_P1;SDS_P2;PMS_P1;PMS_P2;Temp;Humidity;BMP_temperature;BMP_pressure;BME280_temperature;BME280_humidity;BME280_pressure;Samples;Min_cycle;Max_cycle;Signal;HPM_P1;HPM_P2
2023/03/17 00:01:15;;;;;;;5.53;2.65;;;8.00;99.90;;;;;;5051303;28;20118;-66
2023/03/17 00:03:43;;;;;;;3.15;2.72;;;8.00;99.90;;;;;;5051226;28;20091;-66
2023/03/17 00:06:15;;;;;;;3.85;2.95;;;8.00;99.90;;;;;;5050857;28;20493;-66
2023/03/17 00:08:41;;;;;;;7.55;3.05;;;8.00;99.90;;;;;;5051296;28;20698;-66
2023/03/17 00:11:16;;;;;;;4.15;3.00;;;8.00;99.90;;;;;;5051039;28;20052;-66
2023/03/17 00:13:43;;;;;;;2.97;2.63;;;8.00;99.90;;;;;;5050729;28;20505;-66
2023/03/17 00:16:20;;;;;;;4.07;2.72;;;8.00;99.90;;;;;;5050791;28;20086;-67
2023/03/17 00:18:50;;;;;;;3.20;2.90;;;8.10;99.90;;;;;;5050942;28;20040;-66
2023/03/17 00:21:24;;;;;;;3.58;2.92;;;8.00;99.90;;;;;;5049438;28;20516;-66
2023/03/17 00:23:53;;;;;;;3.53;2.95;;;8.00;99.90;;;;;;5051070;28;20037;-66
2023/03/17 00:26:19;;;;;;;3.70;2.88;;;8.00;99.90;;;;;;5051044;28;20066;-66
2023/03/17 00:28:45;;;;;;;5.35;2.60;;;8.00;99.90;;;;;;5051083;28;20476;-66
2023/03/17 00:31:19;;;;;;;4.32;2.88;;;8.10;99.90;;;;;;5050750;28;20044;-66
2023/03/17 00:33:47;;;;;;;3.85;2.97;;;8.10;99.90;;;;;;5060373;28;20412;-66
2023/03/17 00:36:24;;;;;;;8.05;3.10;;;8.10;99.90;;;;;;5070803;28;20052;-66
2023/03/17 00:38:51;;;;;;;3.25;2.90;;;8.10;99.90;;;;;;5070372;28;20484;-66
2023/03/17 00:41:17;;;;;;;5.43;3.15;;;8.10;99.90;;;;;;5069259;28;20816;-66
2023/03/17 00:43:43;;;;;;;8.80;3.72;;;8.10;99.90;;;;;;5070269;28;20044;-66
2023/03/17 00:46:15;;;;;;;3.40;3.10;;;8.10;99.90;;;;;;5070348;28;20051;-66
2023/03/17 00:48:42;;;;;;;5.28;2.97;;;8.10;99.90;;;;;;5070694;28;20122;-66
2023/03/17 00:51:08;;;;;;;6.78;3.15;;;8.10;99.90;;;;;;5044757;28;20040;-66
2023/03/17 00:53:34;;;;;;;5.35;3.15;;;8.10;99.90;;;;;;5052202;28;20044;-66
2023/03/17 00:56:01;;;;;;;3.88;3.05;;;8.10;99.90;;;;;;5050083;28;20692;-66
2023/03/17 00:58:28;;;;;;;5.07;2.70;;;8.10;99.90;;;;;;5050192;28;20052;-67
2023/03/17 01:00:54;;;;;;;6.85;3.00;;;8.10;99.90;;;;;;5050250;28;20123;-67
2023/03/17 01:03:20;;;;;;;4.90;2.92;;;8.10;99.90;;;;;;5050266;28;20068;-67
2023/03/17 01:05:47;;;;;;;4.20;2.90;;;8.10;99.90;;;;;;5049882;28;20128;-66
2023/03/17 01:08:13;;;;;;;5.07;3.15;;;8.10;99.90;;;;;;5043803;28;20041;-66
2023/03/17 01:10:39;;;;;;;8.43;3.30;;;8.10;99.90;;;;;;5041736;28;20032;-66
2023/03/17 01:13:05;;;;;;;6.20;2.95;;;8.10;99.90;;;;;;5049693;28;20524;-66
2023/03/17 01:15:33;;;;;;;3.42;2.97;;;8.00;99.90;;;;;;5049256;28;20049;-66
2023/03/17 01:18:00;;;;;;;6.97;2.92;;;8.00;99.90;;;;;;5049688;28;20536;-67
2023/03/17 01:20:29;;;;;;;4.65;2.63;;;8.10;99.90;;;;;;5049617;28;20707;-66
2023/03/17 01:22:56;;;;;;;3.70;2.85;;;8.00;99.90;;;;;;5045628;28;20043;-66
2023/03/17 01:25:22;;;;;;;5.88;2.83;;;8.10;99.90;;;;;;5049206;28;20130;-66
2023/03/17 01:27:49;;;;;;;8.15;3.72;;;8.00;99.90;;;;;;5049640;28;20076;-66
2023/03/17 01:30:22;;;;;;;5.32;3.03;;;8.10;99.90;;;;;;5049505;28;20053;-66
2023/03/17 01:32:49;;;;;;;3.75;2.88;;;8.10;99.90;;;;;;5049583;28;20049;-66
2023/03/17 01:35:15;;;;;;;4.35;3.28;;;8.10;99.90;;;;;;5046522;28;20077;-66
2023/03/17 01:37:41;;;;;;;5.75;2.72;;;8.10;99.90;;;;;;5049138;28;20041;-66
2023/03/17 01:40:11;;;;;;;3.50;2.92;;;8.10;99.90;;;;;;5049236;28;20040;-66
2023/03/17 01:42:38;;;;;;;4.63;3.40;;;8.00;99.90;;;;;;5049491;28;20041;-66
2023/03/17 01:45:42;;;;;;;5.82;3.03;;;8.00;99.90;;;;;;5049257;28;20116;-66
2023/03/17 01:48:08;;;;;;;4.50;2.65;;;8.00;99.90;;;;;;5045279;28;20056;-66
2023/03/17 01:50:33;;;;;;;3.85;3.08;;;8.00;99.90;;;;;;5046878;28;20041;-66
2023/03/17 01:52:59;;;;;;;6.45;3.30;;;8.10;99.90;;;;;;5048699;28;20115;-66
2023/03/17 01:55:25;;;;;;;5.35;3.33;;;8.10;99.90;;;;;;5048615;28;20588;-66
2023/03/17 01:57:53;;;;;;;5.07;3.38;;;8.00;99.90;;;;;;5049238;28;20048;-66
2023/03/17 02:00:22;;;;;;;5.85;3.30;;;8.00;99.90;;;;;;5048976;28;20051;-66
2023/03/17 02:02:54;;;;;;;5.57;3.00;;;8.00;99.90;;;;;;5044201;28;20036;-66
2023/03/17 02:05:24;;;;;;;3.13;2.83;;;8.00;99.90;;;;;;5048690;28;20044;-66
2023/03/17 02:07:51;;;;;;;4.57;2.80;;;8.00;99.90;;;;;;5041266;28;20052;-66
2023/03/17 02:10:19;;;;;;;5.30;3.00;;;8.00;99.90;;;;;;5044762;28;20041;-66
2023/03/17 02:12:49;;;;;;;4.10;3.00;;;8.00;99.90;;;;;;5045995;28;20509;-66
2023/03/17 02:15:16;;;;;;;4.55;3.03;;;8.00;99.90;;;;;;5047126;28;20406;-66
2023/03/17 02:17:42;;;;;;;3.35;2.70;;;8.00;99.90;;;;;;5045141;28;20051;-66
2023/03/17 02:20:27;;;;;;;4.40;2.85;;;8.00;99.90;;;;;;5048364;28;20041;-66
2023/03/17 02:22:56;;;;;;;7.22;3.22;;;8.00;99.90;;;;;;5036891;28;20040;-66
2023/03/17 02:25:23;;;;;;;6.00;3.10;;;8.00;99.90;;;;;;5048517;28;20082;-66
2023/03/17 02:27:53;;;;;;;6.82;3.10;;;8.00;99.90;;;;;;5048708;28;20037;-66
2023/03/17 02:30:21;;;;;;;5.25;3.00;;;8.10;99.90;;;;;;5043283;28;20036;-66
2023/03/17 02:32:47;;;;;;;7.35;2.53;;;8.00;99.90;;;;;;5048275;28;20095;-66
2023/03/17 02:35:12;;;;;;;3.80;3.25;;;8.00;99.90;;;;;;5048445;28;20079;-66
2023/03/17 02:37:38;;;;;;;7.88;3.33;;;8.00;99.90;;;;;;5048711;28;20470;-66
2023/03/17 02:40:05;;;;;;;4.80;2.97;;;8.00;99.90;;;;;;5048420;28;20195;-66
2023/03/17 02:42:32;;;;;;;5.57;2.88;;;8.00;99.90;;;;;;5040745;28;20042;-66
2023/03/17 02:44:59;;;;;;;4.70;3.20;;;8.00;99.90;;;;;;5047817;28;20119;-66
2023/03/17 02:47:26;;;;;;;3.72;2.33;;;8.00;99.90;;;;;;5048246;28;20133;-66
2023/03/17 02:49:53;;;;;;;3.80;2.90;;;8.00;99.90;;;;;;5048086;28;20041;-66
2023/03/17 02:52:18;;;;;;;3.65;2.88;;;8.00;99.90;;;;;;5048056;28;20049;-66
2023/03/17 02:54:44;;;;;;;5.32;3.00;;;7.90;99.90;;;;;;5040919;28;20029;-66
2023/03/17 02:57:09;;;;;;;3.42;2.88;;;8.00;99.90;;;;;;5047778;28;20045;-66
2023/03/17 02:59:35;;;;;;;5.88;3.67;;;7.90;99.90;;;;;;5047699;28;20504;-66
2023/03/17 03:02:01;;;;;;;4.68;3.55;;;7.80;99.90;;;;;;5048051;28;20544;-66
2023/03/17 03:04:27;;;;;;;4.43;2.90;;;7.60;99.90;;;;;;5047139;28;20044;-66
2023/03/17 03:06:53;;;;;;;6.20;3.50;;;7.60;99.90;;;;;;5047837;28;20063;-66
2023/03/17 03:09:19;;;;;;;7.10;3.67;;;7.60;99.90;;;;;;5043675;28;20041;-66
2023/03/17 03:11:46;;;;;;;5.13;3.25;;;7.50;99.90;;;;;;5041443;28;20429;-66
2023/03/17 03:14:12;;;;;;;5.15;3.40;;;7.40;99.90;;;;;;5046990;28;20044;-66
2023/03/17 03:16:38;;;;;;;3.15;2.85;;;7.40;99.90;;;;;;5047637;28;20045;-66
2023/03/17 03:19:05;;;;;;;5.30;3.60;;;7.30;99.90;;;;;;5047838;28;20040;-66
2023/03/17 03:21:31;;;;;;;5.50;3.60;;;7.20;99.90;;;;;;5042292;28;20052;-66
2023/03/17 03:23:57;;;;;;;5.78;3.53;;;7.20;99.90;;;;;;5047306;28;20037;-66
2023/03/17 03:26:23;;;;;;;3.90;3.45;;;7.20;99.90;;;;;;5047538;28;20075;-66
2023/03/17 03:28:48;;;;;;;4.68;3.40;;;7.10;99.90;;;;;;5047711;28;20041;-66
2023/03/17 03:31:14;;;;;;;4.72;3.47;;;7.10;99.90;;;;;;5047623;28;20547;-66
2023/03/17 03:33:41;;;;;;;6.75;3.65;;;7.00;99.90;;;;;;5042925;28;20041;-66
2023/03/17 03:36:08;;;;;;;4.28;3.50;;;7.00;99.90;;;;;;5041844;28;20108;-66
2023/03/17 03:38:34;;;;;;;4.30;3.55;;;7.00;99.90;;;;;;5047656;28;20492;-66
2023/03/17 03:41:00;;;;;;;5.20;3.53;;;7.00;99.90;;;;;;5047508;28;20037;-66
2023/03/17 03:43:26;;;;;;;6.13;3.55;;;6.90;99.90;;;;;;5047279;28;20052;-66
2023/03/17 03:45:53;;;;;;;6.03;3.28;;;7.00;99.90;;;;;;5047379;28;20041;-66
2023/03/17 03:48:20;;;;;;;3.45;3.13;;;7.00;99.90;;;;;;5043550;28;20064;-66
2023/03/17 03:50:46;;;;;;;5.20;3.40;;;6.90;99.90;;;;;;5047208;28;20037;-66
2023/03/17 03:53:12;;;;;;;6.45;3.38;;;6.90;99.90;;;;;;5047581;28;20063;-66
2023/03/17 03:55:38;;;;;;;4.85;3.33;;;7.00;99.90;;;;;;5047356;28;20087;-66
2023/03/17 03:58:04;;;;;;;11.38;3.70;;;7.00;99.90;;;;;;5047470;28;20505;-67
2023/03/17 04:00:29;;;;;;;5.72;3.15;;;7.00;99.90;;;;;;5047689;28;20460;-67
2023/03/17 04:02:55;;;;;;;5.95;3.13;;;7.00;99.90;;;;;;5044897;28;20108;-66
2023/03/17 04:05:21;;;;;;;3.72;3.05;;;7.10;99.90;;;;;;5043941;28;20041;-66
2023/03/17 04:07:46;;;;;;;5.20;3.03;;;7.10;99.90;;;;;;5047097;28;20554;-66
2023/03/17 04:10:14;;;;;;;3.63;2.72;;;7.30;99.90;;;;;;5045929;28;20124;-66
2023/03/17 04:12:41;;;;;;;5.13;3.13;;;7.30;99.90;;;;;;5043900;28;20040;-67
2023/03/17 04:15:09;;;;;;;4.35;2.97;;;7.40;99.90;;;;;;5046991;28;20817;-66
2023/03/17 04:17:35;;;;;;;2.92;2.60;;;7.50;99.90;;;;;;5047001;28;20045;-66
2023/03/17 04:20:01;;;;;;;3.10;2.40;;;7.50;99.90;;;;;;5050696;28;20032;-66
2023/03/17 04:22:27;;;;;;;3.85;2.90;;;7.50;99.90;;;;;;5050958;28;20117;-66
2023/03/17 04:24:52;;;;;;;5.05;3.10;;;7.60;99.90;;;;;;5050540;28;20119;-66
2023/03/17 04:27:18;;;;;;;6.38;2.70;;;7.60;99.90;;;;;;5050693;28;20045;-66
2023/03/17 04:29:44;;;;;;;6.80;2.85;;;7.60;99.90;;;;;;5048244;28;20060;-66
2023/03/17 04:32:13;;;;;;;2.78;2.42;;;7.70;99.90;;;;;;5048675;28;20044;-66
2023/03/17 04:34:40;;;;;;;5.95;2.50;;;7.70;99.90;;;;;;5050267;28;20590;-66
2023/03/17 04:37:06;;;;;;;3.70;3.05;;;7.70;99.90;;;;;;5050596;28;20049;-66
2023/03/17 04:39:32;;;;;;;4.28;2.97;;;7.70;99.90;;;;;;5050408;28;20638;-66
2023/03/17 04:41:58;;;;;;;3.13;2.83;;;7.70;99.90;;;;;;5048269;28;20048;-66
2023/03/17 04:44:23;;;;;;;5.13;2.28;;;7.70;99.90;;;;;;5048491;28;20073;-66
2023/03/17 04:46:49;;;;;;;3.65;2.80;;;7.70;99.90;;;;;;5050442;28;20099;-67
2023/03/17 04:49:15;;;;;;;3.50;2.80;;;7.70;99.90;;;;;;5050244;28;20047;-66
2023/03/17 04:51:40;;;;;;;3.72;2.20;;;7.70;99.90;;;;;;5049983;28;20080;-66
2023/03/17 04:54:07;;;;;;;4.95;2.83;;;7.70;99.90;;;;;;5049928;28;20041;-66
2023/03/17 04:56:33;;;;;;;3.85;2.65;;;7.70;99.90;;;;;;5047789;28;20087;-66
2023/03/17 04:58:59;;;;;;;4.70;2.97;;;7.70;99.90;;;;;;5047340;28;20116;-66
2023/03/17 05:01:25;;;;;;;5.25;2.97;;;7.70;99.90;;;;;;5050212;28;20119;-66
2023/03/17 05:03:50;;;;;;;4.10;3.00;;;7.70;99.90;;;;;;5050060;28;20045;-66
2023/03/17 05:06:16;;;;;;;4.53;2.70;;;7.80;99.90;;;;;;5050327;28;20051;-66
2023/03/17 05:08:43;;;;;;;4.32;2.60;;;7.70;99.90;;;;;;5050292;28;20051;-66
2023/03/17 05:11:10;;;;;;;3.85;2.92;;;7.70;99.90;;;;;;5044602;28;20043;-66
2023/03/17 05:13:35;;;;;;;4.65;2.97;;;7.70;99.90;;;;;;5046323;28;20095;-66
2023/03/17 05:16:01;;;;;;;3.58;2.80;;;7.70;99.90;;;;;;5049300;28;20473;-66
2023/03/17 05:18:27;;;;;;;3.47;2.83;;;7.70;99.90;;;;;;5049834;28;20048;-67
2023/03/17 05:20:53;;;;;;;3.55;2.58;;;7.70;99.90;;;;;;5049810;28;20048;-67
2023/03/17 05:23:19;;;;;;;6.55;2.80;;;7.70;99.90;;;;;;5046357;28;20037;-67
2023/03/17 05:25:45;;;;;;;4.63;3.00;;;7.70;99.90;;;;;;5048821;28;20468;-66
2023/03/17 05:28:12;;;;;;;4.93;2.80;;;7.70;99.90;;;;;;5049191;28;20045;-66
2023/03/17 05:30:37;;;;;;;4.25;3.25;;;7.70;99.90;;;;;;5049735;28;20045;-66
2023/03/17 05:33:03;;;;;;;4.82;2.90;;;7.70;99.90;;;;;;5049878;28;20048;-66
2023/03/17 05:35:29;;;;;;;3.75;2.80;;;7.70;99.90;;;;;;5049028;28;20548;-66
2023/03/17 05:37:55;;;;;;;4.25;2.72;;;7.80;99.90;;;;;;5046140;28;20041;-66
2023/03/17 05:40:22;;;;;;;3.83;2.65;;;7.80;99.90;;;;;;5048487;28;20782;-66
2023/03/17 05:42:49;;;;;;;3.38;2.70;;;7.70;99.90;;;;;;5049003;28;20087;-66
2023/03/17 05:45:15;;;;;;;3.22;2.92;;;7.80;99.90;;;;;;5048515;28;20045;-66
2023/03/17 05:47:41;;;;;;;5.47;3.30;;;7.70;99.90;;;;;;5047320;28;20797;-66
2023/03/17 05:50:08;;;;;;;6.18;2.92;;;7.70;99.90;;;;;;5046995;28;20517;-66
2023/03/17 05:52:34;;;;;;;9.65;3.40;;;7.70;99.90;;;;;;5042322;28;20532;-66
2023/03/17 05:54:59;;;;;;;5.22;3.30;;;7.80;99.90;;;;;;5047974;28;20033;-66
2023/03/17 05:57:25;;;;;;;6.63;2.88;;;7.80;99.90;;;;;;5048940;28;20041;-66
2023/03/17 05:59:50;;;;;;;4.35;2.97;;;7.80;99.90;;;;;;5049241;28;20135;-66
2023/03/17 06:02:16;;;;;;;4.35;2.67;;;7.80;99.90;;;;;;5053422;28;20083;-66
2023/03/17 06:04:42;;;;;;;4.90;3.47;;;7.80;99.90;;;;;;5047610;28;20077;-66
2023/03/17 06:07:09;;;;;;;4.78;3.08;;;7.80;99.90;;;;;;5049077;28;20120;-66
2023/03/17 06:09:34;;;;;;;4.10;2.65;;;7.80;99.90;;;;;;5048833;28;20071;-66
2023/03/17 06:12:00;;;;;;;3.55;3.03;;;7.80;99.90;;;;;;5043981;28;20038;-67
2023/03/17 06:14:26;;;;;;;3.17;2.28;;;7.80;99.90;;;;;;5048401;28;20051;-66
2023/03/17 06:16:52;;;;;;;5.35;2.85;;;7.80;99.90;;;;;;5048751;28;20043;-66
2023/03/17 06:19:17;;;;;;;3.72;3.22;;;7.90;99.90;;;;;;5045755;28;20127;-66
2023/03/17 06:21:43;;;;;;;4.47;3.20;;;7.90;99.90;;;;;;5048448;28;20037;-66
2023/03/17 06:24:09;;;;;;;3.28;2.97;;;7.90;99.90;;;;;;5048126;28;20036;-66
2023/03/17 06:26:36;;;;;;;5.72;3.10;;;8.00;99.90;;;;;;5048436;28;20037;-66
2023/03/17 06:29:07;;;;;;;3.00;2.70;;;8.00;99.90;;;;;;5048367;28;20098;-66
2023/03/17 06:31:33;;;;;;;5.63;3.63;;;8.00;99.90;;;;;;5048681;28;20045;-67
2023/03/17 06:33:59;;;;;;;3.60;2.88;;;8.10;99.90;;;;;;5044208;28;20047;-67
2023/03/17 06:36:24;;;;;;;4.25;3.72;;;8.10;99.90;;;;;;5048352;28;20406;-66
2023/03/17 06:38:50;;;;;;;5.10;3.30;;;8.20;99.90;;;;;;5047905;28;20409;-66
2023/03/17 06:41:16;;;;;;;3.78;2.75;;;8.30;99.90;;;;;;5048138;28;20047;-66
2023/03/17 06:43:41;;;;;;;5.38;3.08;;;8.30;99.90;;;;;;5048073;28;20043;-66
2023/03/17 06:46:07;;;;;;;4.25;2.78;;;8.50;99.90;;;;;;5042584;28;20124;-66
2023/03/17 06:48:33;;;;;;;5.88;2.72;;;8.60;99.90;;;;;;5046925;28;20076;-66
2023/03/17 06:50:59;;;;;;;5.60;2.95;;;8.70;99.90;;;;;;5048379;28;20033;-66
2023/03/17 06:53:25;;;;;;;5.95;4.50;;;8.80;99.90;;;;;;5048453;28;20056;-66
2023/03/17 06:55:51;;;;;;;5.68;3.50;;;8.80;99.90;;;;;;5048112;28;20732;-66
2023/03/17 06:58:16;;;;;;;4.05;3.13;;;8.90;99.90;;;;;;5044320;28;20040;-66
2023/03/17 07:00:44;;;;;;;4.22;2.83;;;9.00;99.90;;;;;;5047956;28;20103;-66
2023/03/17 07:03:10;;;;;;;6.85;3.00;;;9.00;99.90;;;;;;5048113;28;20041;-67
2023/03/17 07:05:38;;;;;;;4.38;2.60;;;9.00;99.90;;;;;;5047758;28;20540;-67
2023/03/17 07:08:04;;;;;;;5.85;2.97;;;9.00;99.90;;;;;;5048268;28;20051;-67
2023/03/17 07:10:30;;;;;;;4.63;2.70;;;9.00;99.90;;;;;;5047727;28;20064;-68
2023/03/17 07:12:56;;;;;;;4.55;3.42;;;9.00;99.90;;;;;;5047832;28;20509;-66
2023/03/17 07:15:21;;;;;;;7.25;2.85;;;9.10;99.90;;;;;;5047739;28;20085;-67
2023/03/17 07:17:47;;;;;;;4.35;3.20;;;9.00;99.90;;;;;;5047772;28;20055;-67
2023/03/17 07:20:12;;;;;;;5.90;2.95;;;9.10;99.90;;;;;;5047944;28;20037;-67
2023/03/17 07:22:39;;;;;;;5.47;3.70;;;9.10;99.90;;;;;;5046619;28;20037;-67
2023/03/17 07:25:05;;;;;;;4.82;3.25;;;9.10;99.90;;;;;;5047291;28;20048;-67
2023/03/17 07:27:30;;;;;;;4.90;2.78;;;9.10;99.90;;;;;;5048037;28;20120;-67
2023/03/17 07:29:56;;;;;;;6.22;3.10;;;9.10;99.90;;;;;;5047854;28;20037;-68
2023/03/17 07:32:22;;;;;;;4.47;3.00;;;9.10;99.90;;;;;;5047931;28;20461;-67
2023/03/17 07:34:48;;;;;;;6.43;3.40;;;9.10;99.90;;;;;;5047789;28;20049;-67
2023/03/17 07:37:14;;;;;;;4.63;3.00;;;9.10;99.90;;;;;;5047810;28;20060;-67
2023/03/17 07:39:39;;;;;;;6.85;3.22;;;9.10;99.90;;;;;;5048082;28;20040;-67
2023/03/17 07:42:05;;;;;;;6.28;3.22;;;9.20;99.90;;;;;;5041434;28;20033;-67
2023/03/17 07:44:32;;;;;;;5.97;3.10;;;9.20;99.90;;;;;;5044895;28;20043;-67
2023/03/17 07:46:57;;;;;;;5.75;2.95;;;9.20;99.90;;;;;;5047712;28;20120;-67
2023/03/17 07:49:23;;;;;;;5.93;3.25;;;9.30;99.90;;;;;;5047823;28;20112;-67
2023/03/17 07:51:49;;;;;;;6.07;3.90;;;9.30;99.90;;;;;;5050469;28;20037;-67
2023/03/17 07:54:14;;;;;;;5.85;2.90;;;9.30;99.90;;;;;;5051471;28;20029;-67
2023/03/17 07:56:41;;;;;;;4.90;3.20;;;9.30;99.90;;;;;;5051555;28;20095;-67
2023/03/17 07:59:07;;;;;;;3.83;2.85;;;9.40;99.90;;;;;;5051824;28;20107;-67
2023/03/17 08:01:33;;;;;;;5.05;3.28;;;9.40;99.90;;;;;;5052288;28;20055;-67
2023/03/17 08:03:59;;;;;;;4.20;3.22;;;9.50;99.90;;;;;;5051609;28;20028;-67
2023/03/17 08:06:25;;;;;;;5.88;3.40;;;9.50;99.90;;;;;;5051632;28;20044;-67
2023/03/17 08:08:55;;;;;;;5.05;3.33;;;9.50;99.90;;;;;;5039966;28;20096;-67
2023/03/17 08:11:22;;;;;;;7.03;3.20;;;9.50;99.90;;;;;;5041067;28;20741;-67
2023/03/17 08:13:48;;;;;;;4.53;3.65;;;9.50;99.90;;;;;;5037681;28;20059;-67
2023/03/17 08:16:14;;;;;;;6.85;3.67;;;9.60;99.90;;;;;;5040881;28;20037;-67
2023/03/17 08:18:40;;;;;;;6.15;3.58;;;9.60;99.90;;;;;;5044286;28;20566;-67
2023/03/17 08:21:06;;;;;;;6.03;3.13;;;9.70;99.90;;;;;;5048509;28;20033;-67
2023/03/17 08:23:32;;;;;;;8.52;3.88;;;9.70;99.90;;;;;;5051507;28;20079;-66
2023/03/17 08:25:59;;;;;;;5.80;3.78;;;9.70;99.90;;;;;;5050992;28;20636;-67
2023/03/17 08:28:25;;;;;;;4.80;3.92;;;9.80;99.90;;;;;;5051155;28;20049;-67
2023/03/17 08:30:51;;;;;;;6.22;3.70;;;9.80;99.90;;;;;;5051253;28;20064;-67
2023/03/17 08:33:17;;;;;;;8.02;3.70;;;9.80;99.90;;;;;;5050846;28;20044;-67
2023/03/17 08:35:43;;;;;;;6.32;3.38;;;9.90;99.90;;;;;;5050787;28;20390;-67
2023/03/17 08:38:09;;;;;;;4.75;3.22;;;9.90;99.90;;;;;;5049745;28;20037;-67
2023/03/17 08:40:35;;;;;;;3.38;3.08;;;9.90;99.90;;;;;;5050729;28;20494;-67
2023/03/17 08:43:01;;;;;;;8.63;3.17;;;10.00;99.90;;;;;;5044664;28;20040;-67
2023/03/17 08:45:27;;;;;;;4.63;3.30;;;10.00;99.90;;;;;;5043559;28;20075;-67
2023/03/17 08:47:53;;;;;;;5.85;3.30;;;10.10;99.90;;;;;;5042216;28;20065;-66
2023/03/17 08:50:21;;;;;;;5.25;3.30;;;10.10;99.90;;;;;;5042739;28;20052;-66
2023/03/17 08:52:47;;;;;;;4.85;3.20;;;10.10;99.90;;;;;;5050804;28;20142;-67
2023/03/17 08:55:15;;;;;;;6.13;3.65;;;10.20;99.90;;;;;;5050512;28;20068;-67
2023/03/17 08:57:43;;;;;;;6.05;3.95;;;10.20;99.90;;;;;;5050528;28;20429;-67
2023/03/17 09:00:14;;;;;;;4.95;3.67;;;10.30;99.90;;;;;;5050382;28;20554;-65
2023/03/17 09:02:42;;;;;;;7.22;3.58;;;10.40;99.90;;;;;;5049700;28;20037;-66
2023/03/17 09:05:10;;;;;;;5.63;3.60;;;10.40;99.90;;;;;;5050437;28;20060;-68
2023/03/17 09:07:36;;;;;;;5.05;3.55;;;10.40;99.90;;;;;;5050347;28;20087;-67
2023/03/17 09:10:02;;;;;;;12.32;4.50;;;10.50;99.90;;;;;;5050494;28;20521;-67
2023/03/17 09:12:28;;;;;;;6.22;3.60;;;10.50;99.90;;;;;;5050354;28;20041;-67
2023/03/17 09:14:55;;;;;;;9.20;3.63;;;10.60;99.90;;;;;;5049871;28;20041;-66
2023/03/17 09:17:20;;;;;;;6.25;3.67;;;10.60;99.90;;;;;;5050450;28;20040;-67
2023/03/17 09:19:46;;;;;;;8.93;3.97;;;10.60;99.90;;;;;;5050378;28;20045;-67
2023/03/17 09:22:14;;;;;;;6.82;3.78;;;10.70;99.90;;;;;;5050372;28;20052;-67
2023/03/17 09:24:40;;;;;;;6.65;3.67;;;10.70;99.90;;;;;;5049764;28;20505;-67
2023/03/17 09:27:06;;;;;;;7.05;3.70;;;10.80;99.90;;;;;;5050571;28;20049;-67
2023/03/17 09:29:32;;;;;;;9.05;3.33;;;10.90;99.90;;;;;;5050079;28;20488;-67
2023/03/17 09:31:59;;;;;;;6.72;3.63;;;11.00;99.90;;;;;;5049997;28;20080;-67
2023/03/17 09:34:25;;;;;;;4.82;3.40;;;11.00;99.90;;;;;;5045943;28;20037;-67
2023/03/17 09:36:53;;;;;;;8.38;3.85;;;11.10;99.90;;;;;;5044548;28;20665;-67
2023/03/17 09:39:21;;;;;;;6.85;4.18;;;11.20;99.90;;;;;;5043674;28;20036;-67
2023/03/17 09:42:17;;;;;;;6.68;3.55;;;11.30;99.90;;;;;;5049618;28;20033;-67
2023/03/17 09:44:46;;;;;;;5.32;3.28;;;11.40;99.90;;;;;;5049605;28;20037;-67
2023/03/17 09:47:20;;;;;;;8.40;3.42;;;11.40;99.90;;;;;;5049899;28;20060;-67
2023/03/17 09:49:54;;;;;;;5.57;4.00;;;11.50;99.90;;;;;;5050020;28;20033;-67
2023/03/17 09:52:33;;;;;;;8.07;3.80;;;11.60;99.90;;;;;;5049856;28;20037;-67
2023/03/17 09:55:00;;;;;;;11.13;4.03;;;11.60;99.90;;;;;;5049443;28;20108;-67
2023/03/17 09:57:33;;;;;;;6.90;3.55;;;11.60;99.90;;;;;;5049463;28;20043;-67
2023/03/17 10:00:25;;;;;;;5.72;3.75;;;11.70;99.90;;;;;;5046470;28;20096;-68
2023/03/17 10:02:51;;;;;;;8.27;3.93;;;11.70;99.90;;;;;;5039371;28;20033;-67
2023/03/17 10:05:18;;;;;;;6.55;4.13;;;11.70;99.90;;;;;;5035313;28;20334;-66
2023/03/17 10:07:59;;;;;;;6.60;4.15;;;11.70;99.90;;;;;;5029524;28;20409;-67
2023/03/17 10:10:31;;;;;;;6.70;3.88;;;11.80;99.90;;;;;;5029378;28;20049;-67
2023/03/17 10:13:14;;;;;;;7.90;4.00;;;11.90;99.90;;;;;;5029187;28;20776;-67
2023/03/17 10:15:50;;;;;;;6.35;4.07;;;12.00;99.90;;;;;;5045308;28;20040;-67
2023/03/17 10:18:17;;;;;;;9.18;4.15;;;12.20;99.90;;;;;;5048218;28;20053;-68
2023/03/17 10:20:58;;;;;;;6.93;4.10;;;12.20;99.90;;;;;;5048938;28;20119;-67
2023/03/17 10:23:28;;;;;;;9.23;4.95;;;12.20;99.90;;;;;;5049184;28;20090;-66
2023/03/17 10:25:58;;;;;;;7.88;4.45;;;12.20;99.90;;;;;;5048597;28;20047;-68
2023/03/17 10:28:30;;;;;;;9.65;5.57;;;12.20;99.90;;;;;;5048957;28;20041;-68
2023/03/17 10:31:27;;;;;;;10.13;3.95;;;12.50;99.90;;;;;;5048607;28;20055;-68
2023/03/17 10:33:54;;;;;;;8.48;4.45;;;12.70;99.90;;;;;;5048619;28;20048;-68
2023/03/17 10:36:35;;;;;;;8.07;4.03;;;12.80;99.90;;;;;;5048889;28;20052;-67
2023/03/17 10:39:06;;;;;;;5.30;3.92;;;12.80;99.90;;;;;;5048798;28;20044;-67
2023/03/17 10:41:39;;;;;;;6.53;4.10;;;12.90;99.90;;;;;;5048598;28;20052;-67
2023/03/17 10:44:19;;;;;;;6.30;4.40;;;13.10;99.90;;;;;;5048480;28;20163;-67
2023/03/17 10:46:53;;;;;;;5.82;3.60;;;13.10;99.90;;;;;;5048481;28;20044;-67
2023/03/17 10:49:22;;;;;;;6.07;4.03;;;13.10;99.90;;;;;;5048588;28;20032;-68
2023/03/17 10:51:52;;;;;;;5.75;3.97;;;13.10;99.90;;;;;;5048384;28;20125;-68
2023/03/17 10:54:19;;;;;;;7.68;4.00;;;13.30;99.90;;;;;;5047874;28;20045;-68
2023/03/17 10:56:48;;;;;;;6.30;4.40;;;13.30;99.90;;;;;;5048210;28;20033;-68
2023/03/17 10:59:36;;;;;;;8.77;4.85;;;13.20;99.90;;;;;;5048335;28;20068;-68
2023/03/17 11:02:19;;;;;;;10.02;5.35;;;13.20;99.90;;;;;;5048176;28;20532;-68
2023/03/17 11:04:44;;;;;;;12.10;4.45;;;13.30;99.90;;;;;;5047917;28;20099;-68
2023/03/17 11:07:17;;;;;;;9.82;3.95;;;13.60;99.90;;;;;;5048013;28;20440;-69
2023/03/17 11:09:49;;;;;;;7.80;4.40;;;13.60;99.90;;;;;;5048284;28;20406;-68
2023/03/17 11:12:28;;;;;;;10.50;4.55;;;13.70;99.90;;;;;;5048110;28;20041;-68
2023/03/17 11:15:00;;;;;;;8.30;4.70;;;13.90;99.90;;;;;;5048218;28;20037;-68
2023/03/17 11:17:50;;;;;;;8.17;4.60;;;13.90;99.90;;;;;;5048016;28;20041;-68
2023/03/17 11:20:37;;;;;;;8.02;4.50;;;13.90;99.90;;;;;;5048279;28;20043;-68
2023/03/17 11:23:34;;;;;;;8.30;5.13;;;14.00;99.90;;;;;;5048066;28;20505;-68
2023/03/17 11:26:36;;;;;;;8.23;4.07;;;14.10;99.90;;;;;;5047390;28;20045;-68
2023/03/17 11:29:34;;;;;;;6.20;4.15;;;14.20;99.90;;;;;;5041582;28;20799;-68
2023/03/17 11:32:29;;;;;;;10.70;4.28;;;14.10;99.90;;;;;;5041158;28;20041;-68
2023/03/17 11:34:57;;;;;;;9.55;4.72;;;14.20;99.90;;;;;;5039922;28;20045;-70
2023/03/17 11:38:11;;;;;;;8.38;4.28;;;14.20;99.90;;;;;;5047939;28;20088;-69
2023/03/17 11:40:56;;;;;;;;;;;14.30;99.90;;;;;;5045284;28;20772;-69
2023/03/17 11:43:36;;;;;;;5.72;3.35;;;14.30;99.90;;;;;;5030386;28;19921;-70
2023/03/17 11:46:16;;;;;;;7.07;3.92;;;14.30;99.90;;;;;;5038697;28;20119;-69
2023/03/17 11:48:47;;;;;;;7.57;4.43;;;14.10;99.90;;;;;;5031282;28;20390;-69
2023/03/17 11:51:39;;;;;;;7.00;4.28;;;14.10;99.90;;;;;;5029884;28;20089;-69
2023/03/17 11:54:15;;;;;;;7.63;4.00;;;14.20;99.90;;;;;;5027517;28;20103;-69
2023/03/17 11:56:44;;;;;;;11.02;4.53;;;14.30;99.90;;;;;;5040394;28;20040;-69
2023/03/17 11:59:36;;;;;;;8.90;3.97;;;14.30;99.90;;;;;;5041621;28;20397;-70
2023/03/17 12:02:19;;;;;;;5.72;3.70;;;14.40;99.90;;;;;;5034712;28;20033;-70
2023/03/17 12:04:54;;;;;;;7.63;4.45;;;14.20;99.90;;;;;;5032540;28;20037;-69
2023/03/17 12:07:59;;;;;;;6.35;4.00;;;14.10;99.90;;;;;;5031483;28;20052;-69
2023/03/17 12:10:35;;;;;;;16.30;5.07;;;14.20;99.90;;;;;;5022340;28;20406;-70
2023/03/17 12:13:13;;;;;;;6.57;3.83;;;14.10;99.90;;;;;;5036556;28;20095;-69
2023/03/17 12:15:42;;;;;;;7.20;3.95;;;14.10;99.90;;;;;;5035559;28;20033;-69
2023/03/17 12:18:26;;;;;;;12.70;4.68;;;14.10;99.90;;;;;;5040693;28;20065;-70
2023/03/17 12:21:03;;;;;;;10.63;4.57;;;14.00;99.90;;;;;;5039666;28;20045;-70
2023/03/17 12:23:53;;;;;;;7.85;4.00;;;14.10;99.90;;;;;;5047178;28;20126;-67
2023/03/17 12:26:30;;;;;;;7.68;4.55;;;14.10;99.90;;;;;;5047419;28;20033;-67
2023/03/17 12:29:02;;;;;;;6.75;4.32;;;14.10;99.90;;;;;;5047409;28;20033;-67
2023/03/17 12:31:38;;;;;;;6.88;4.10;;;14.20;99.90;;;;;;5047469;28;20071;-67
2023/03/17 12:34:17;;;;;;;6.57;3.85;;;14.20;99.90;;;;;;5046897;28;20170;-67
2023/03/17 12:36:43;;;;;;;6.63;3.75;;;14.10;99.90;;;;;;5047195;28;20052;-67
2023/03/17 12:39:31;;;;;;;7.55;4.00;;;14.10;99.90;;;;;;5049968;28;20076;-68
2023/03/17 12:42:10;;;;;;;8.48;4.20;;;14.20;99.90;;;;;;5051043;28;20045;-67
2023/03/17 12:44:48;;;;;;;5.90;4.20;;;14.20;99.90;;;;;;5050580;28;20049;-68
2023/03/17 12:47:44;;;;;;;6.25;4.00;;;14.20;99.90;;;;;;5051037;28;20041;-67
2023/03/17 12:50:24;;;;;;;6.95;4.25;;;14.20;99.90;;;;;;5050585;28;20509;-68
2023/03/17 12:53:14;;;;;;;6.60;4.20;;;14.20;99.90;;;;;;5050641;28;20124;-68
2023/03/17 12:55:44;;;;;;;7.07;3.78;;;14.20;99.90;;;;;;5050158;28;20124;-67
2023/03/17 12:58:18;;;;;;;10.07;4.40;;;14.20;99.90;;;;;;5050833;28;20664;-68
2023/03/17 13:00:55;;;;;;;5.72;3.72;;;14.20;99.90;;;;;;5050964;28;20029;-68
2023/03/17 13:03:26;;;;;;;8.30;3.88;;;14.30;99.90;;;;;;5050852;28;20072;-68
2023/03/17 13:05:58;;;;;;;7.50;4.40;;;14.40;99.90;;;;;;5050532;28;20509;-68